Airport View

Enter AWOS ICAO identifier for current METAR.

ex. KFNL

KALM 101500Z AUTO 31003KT 10SM CLR 29/11 A3012 RMK AO2

10 Aug 2020 15:01

Frequency: 127.825

Phone: 575-439-4112

Other Area AWOS: KHMN - KSRR - KLRU - KBIF

TAF KHMN 100910Z 1009/1115 VRB06KT 9999 SKC QNH3010INS BECMG 1017/1018 VRB06KT 9999 FEW140 QNH3004INS TS OMTNS BECMG 1022/1023 30009KT 9999 SCT140 QNH3007INS BECMG 1107/1108 VRB06KT 9999 SKC QNH3009INS TX37/1022Z TN20/1012Z